sensor_id;sensor_type;location;lat;lon;timestamp;P1;durP1;ratioP1;P2;durP2;ratioP2
16543;SDS011;8384;47.996;7.786;2022-12-18T00:01:01;56.72;;;35.05;;
16543;SDS011;8384;47.996;7.786;2022-12-18T00:03:34;52.85;;;33.10;;
16543;SDS011;8384;47.996;7.786;2022-12-18T00:06:00;55.47;;;34.42;;
16543;SDS011;8384;47.996;7.786;2022-12-18T00:08:26;55.70;;;34.72;;
16543;SDS011;8384;47.996;7.786;2022-12-18T00:10:51;52.30;;;34.13;;
16543;SDS011;8384;47.996;7.786;2022-12-18T00:13:16;50.93;;;33.43;;
16543;SDS011;8384;47.996;7.786;2022-12-18T00:15:42;49.42;;;33.65;;
16543;SDS011;8384;47.996;7.786;2022-12-18T00:18:07;51.63;;;33.40;;
16543;SDS011;8384;47.996;7.786;2022-12-18T00:20:39;48.97;;;31.67;;
16543;SDS011;8384;47.996;7.786;2022-12-18T00:23:05;47.55;;;30.80;;
16543;SDS011;8384;47.996;7.786;2022-12-18T00:25:34;47.17;;;31.30;;
16543;SDS011;8384;47.996;7.786;2022-12-18T00:28:01;48.30;;;31.08;;
16543;SDS011;8384;47.996;7.786;2022-12-18T00:30:26;49.10;;;32.20;;
16543;SDS011;8384;47.996;7.786;2022-12-18T00:32:52;47.47;;;32.65;;
16543;SDS011;8384;47.996;7.786;2022-12-18T00:35:17;49.10;;;32.27;;
16543;SDS011;8384;47.996;7.786;2022-12-18T00:37:43;47.93;;;32.00;;
16543;SDS011;8384;47.996;7.786;2022-12-18T00:40:08;47.87;;;31.30;;
16543;SDS011;8384;47.996;7.786;2022-12-18T00:42:34;47.45;;;30.90;;
16543;SDS011;8384;47.996;7.786;2022-12-18T00:45:18;92.35;;;34.40;;
16543;SDS011;8384;47.996;7.786;2022-12-18T00:47:43;46.50;;;30.70;;
16543;SDS011;8384;47.996;7.786;2022-12-18T00:50:09;50.73;;;31.80;;
16543;SDS011;8384;47.996;7.786;2022-12-18T00:52:34;48.90;;;32.35;;
16543;SDS011;8384;47.996;7.786;2022-12-18T00:54:59;49.93;;;31.47;;
16543;SDS011;8384;47.996;7.786;2022-12-18T00:57:25;50.60;;;31.60;;
16543;SDS011;8384;47.996;7.786;2022-12-18T00:59:50;63.77;;;32.57;;
16543;SDS011;8384;47.996;7.786;2022-12-18T01:02:15;50.20;;;30.80;;
16543;SDS011;8384;47.996;7.786;2022-12-18T01:04:40;51.67;;;31.17;;
16543;SDS011;8384;47.996;7.786;2022-12-18T01:07:06;94.27;;;33.40;;
16543;SDS011;8384;47.996;7.786;2022-12-18T01:09:31;58.03;;;32.87;;
16543;SDS011;8384;47.996;7.786;2022-12-18T01:11:56;53.38;;;31.73;;
16543;SDS011;8384;47.996;7.786;2022-12-18T01:14:22;55.03;;;30.67;;
16543;SDS011;8384;47.996;7.786;2022-12-18T01:16:47;55.70;;;32.57;;
16543;SDS011;8384;47.996;7.786;2022-12-18T01:19:12;62.08;;;31.63;;
16543;SDS011;8384;47.996;7.786;2022-12-18T01:21:38;58.80;;;32.33;;
16543;SDS011;8384;47.996;7.786;2022-12-18T01:24:03;69.13;;;33.20;;
16543;SDS011;8384;47.996;7.786;2022-12-18T01:26:29;64.68;;;32.88;;
16543;SDS011;8384;47.996;7.786;2022-12-18T01:28:55;60.45;;;31.75;;
16543;SDS011;8384;47.996;7.786;2022-12-18T01:31:22;62.83;;;32.97;;
16543;SDS011;8384;47.996;7.786;2022-12-18T01:33:53;227.03;;;38.90;;
16543;SDS011;8384;47.996;7.786;2022-12-18T01:36:20;101.28;;;34.42;;
16543;SDS011;8384;47.996;7.786;2022-12-18T01:38:51;59.17;;;34.22;;
16543;SDS011;8384;47.996;7.786;2022-12-18T01:41:17;57.17;;;33.03;;
16543;SDS011;8384;47.996;7.786;2022-12-18T01:43:52;64.53;;;34.88;;
16543;SDS011;8384;47.996;7.786;2022-12-18T01:46:25;58.53;;;34.00;;
16543;SDS011;8384;47.996;7.786;2022-12-18T01:48:53;79.60;;;35.58;;
16543;SDS011;8384;47.996;7.786;2022-12-18T01:51:22;86.13;;;34.28;;
16543;SDS011;8384;47.996;7.786;2022-12-18T01:53:48;62.55;;;34.08;;
16543;SDS011;8384;47.996;7.786;2022-12-18T01:56:15;96.88;;;36.53;;
16543;SDS011;8384;47.996;7.786;2022-12-18T01:58:47;58.17;;;34.13;;
16543;SDS011;8384;47.996;7.786;2022-12-18T02:01:20;59.75;;;34.45;;
16543;SDS011;8384;47.996;7.786;2022-12-18T02:03:49;59.27;;;32.37;;
16543;SDS011;8384;47.996;7.786;2022-12-18T02:06:32;53.03;;;31.17;;
16543;SDS011;8384;47.996;7.786;2022-12-18T02:09:11;54.03;;;31.23;;
16543;SDS011;8384;47.996;7.786;2022-12-18T02:11:45;61.33;;;33.17;;
16543;SDS011;8384;47.996;7.786;2022-12-18T02:14:28;58.17;;;33.83;;
16543;SDS011;8384;47.996;7.786;2022-12-18T02:17:33;66.57;;;35.30;;
16543;SDS011;8384;47.996;7.786;2022-12-18T02:28:25;141.57;;;36.05;;
16543;SDS011;8384;47.996;7.786;2022-12-18T02:30:53;49.90;;;30.80;;
16543;SDS011;8384;47.996;7.786;2022-12-18T02:33:23;48.70;;;30.47;;
16543;SDS011;8384;47.996;7.786;2022-12-18T02:35:50;54.20;;;31.38;;
16543;SDS011;8384;47.996;7.786;2022-12-18T02:38:17;51.85;;;30.95;;
16543;SDS011;8384;47.996;7.786;2022-12-18T02:40:42;50.70;;;31.33;;
16543;SDS011;8384;47.996;7.786;2022-12-18T02:43:09;49.00;;;30.92;;
16543;SDS011;8384;47.996;7.786;2022-12-18T02:45:46;47.95;;;31.02;;
16543;SDS011;8384;47.996;7.786;2022-12-18T02:48:14;48.70;;;30.92;;
16543;SDS011;8384;47.996;7.786;2022-12-18T02:50:44;45.58;;;30.75;;
16543;SDS011;8384;47.996;7.786;2022-12-18T02:53:27;41.83;;;27.25;;
16543;SDS011;8384;47.996;7.786;2022-12-18T02:58:37;39.25;;;26.52;;
16543;SDS011;8384;47.996;7.786;2022-12-18T03:01:15;35.92;;;26.15;;
16543;SDS011;8384;47.996;7.786;2022-12-18T03:08:44;35.17;;;24.83;;
16543;SDS011;8384;47.996;7.786;2022-12-18T03:11:13;36.13;;;25.15;;
16543;SDS011;8384;47.996;7.786;2022-12-18T03:13:42;36.95;;;25.35;;
16543;SDS011;8384;47.996;7.786;2022-12-18T03:16:10;37.58;;;26.02;;
16543;SDS011;8384;47.996;7.786;2022-12-18T03:18:39;38.00;;;26.02;;
16543;SDS011;8384;47.996;7.786;2022-12-18T03:21:11;40.60;;;27.10;;
16543;SDS011;8384;47.996;7.786;2022-12-18T03:23:40;40.90;;;27.33;;
16543;SDS011;8384;47.996;7.786;2022-12-18T03:26:10;40.42;;;26.60;;
16543;SDS011;8384;47.996;7.786;2022-12-18T03:28:44;42.72;;;28.42;;
16543;SDS011;8384;47.996;7.786;2022-12-18T03:31:14;43.38;;;28.25;;
16543;SDS011;8384;47.996;7.786;2022-12-18T03:33:45;40.88;;;27.67;;
16543;SDS011;8384;47.996;7.786;2022-12-18T03:36:15;40.05;;;26.90;;
16543;SDS011;8384;47.996;7.786;2022-12-18T03:38:41;41.47;;;27.23;;
16543;SDS011;8384;47.996;7.786;2022-12-18T03:46:24;40.33;;;27.67;;
16543;SDS011;8384;47.996;7.786;2022-12-18T03:49:06;41.28;;;27.23;;
16543;SDS011;8384;47.996;7.786;2022-12-18T03:51:42;41.47;;;28.15;;
16543;SDS011;8384;47.996;7.786;2022-12-18T03:54:14;40.30;;;27.35;;
16543;SDS011;8384;47.996;7.786;2022-12-18T03:56:45;37.13;;;26.30;;
16543;SDS011;8384;47.996;7.786;2022-12-18T03:59:13;41.80;;;29.17;;
16543;SDS011;8384;47.996;7.786;2022-12-18T04:01:42;41.60;;;27.88;;
16543;SDS011;8384;47.996;7.786;2022-12-18T04:04:12;40.75;;;27.40;;
16543;SDS011;8384;47.996;7.786;2022-12-18T04:06:39;41.72;;;27.23;;
16543;SDS011;8384;47.996;7.786;2022-12-18T04:09:06;39.77;;;27.43;;
16543;SDS011;8384;47.996;7.786;2022-12-18T04:11:33;39.55;;;27.25;;
16543;SDS011;8384;47.996;7.786;2022-12-18T04:13:58;41.87;;;27.90;;
16543;SDS011;8384;47.996;7.786;2022-12-18T04:16:24;42.07;;;27.97;;
16543;SDS011;8384;47.996;7.786;2022-12-18T04:18:50;41.33;;;28.42;;
16543;SDS011;8384;47.996;7.786;2022-12-18T04:21:15;43.67;;;29.83;;
16543;SDS011;8384;47.996;7.786;2022-12-18T04:23:41;42.53;;;28.08;;
16543;SDS011;8384;47.996;7.786;2022-12-18T04:26:06;41.00;;;28.60;;
16543;SDS011;8384;47.996;7.786;2022-12-18T04:28:31;43.83;;;29.80;;
16543;SDS011;8384;47.996;7.786;2022-12-18T04:30:57;43.50;;;28.80;;
16543;SDS011;8384;47.996;7.786;2022-12-18T04:33:22;42.33;;;28.50;;
16543;SDS011;8384;47.996;7.786;2022-12-18T04:35:47;41.60;;;27.80;;
16543;SDS011;8384;47.996;7.786;2022-12-18T04:38:13;41.17;;;28.10;;
16543;SDS011;8384;47.996;7.786;2022-12-18T04:40:38;42.13;;;28.42;;
16543;SDS011;8384;47.996;7.786;2022-12-18T04:43:04;42.40;;;28.40;;
16543;SDS011;8384;47.996;7.786;2022-12-18T04:45:30;43.30;;;28.63;;
16543;SDS011;8384;47.996;7.786;2022-12-18T04:47:59;41.97;;;29.23;;
16543;SDS011;8384;47.996;7.786;2022-12-18T04:50:26;41.97;;;27.70;;
16543;SDS011;8384;47.996;7.786;2022-12-18T04:52:51;41.10;;;27.55;;
16543;SDS011;8384;47.996;7.786;2022-12-18T04:55:16;41.80;;;27.80;;
16543;SDS011;8384;47.996;7.786;2022-12-18T04:57:42;40.73;;;28.13;;
16543;SDS011;8384;47.996;7.786;2022-12-18T05:00:07;42.90;;;27.40;;
16543;SDS011;8384;47.996;7.786;2022-12-18T05:02:33;45.15;;;29.48;;
16543;SDS011;8384;47.996;7.786;2022-12-18T05:04:58;43.92;;;28.85;;
16543;SDS011;8384;47.996;7.786;2022-12-18T05:07:24;43.00;;;28.97;;
16543;SDS011;8384;47.996;7.786;2022-12-18T05:09:49;46.93;;;30.83;;
16543;SDS011;8384;47.996;7.786;2022-12-18T05:12:14;44.67;;;29.55;;
16543;SDS011;8384;47.996;7.786;2022-12-18T05:14:40;43.33;;;29.83;;
16543;SDS011;8384;47.996;7.786;2022-12-18T05:17:05;45.78;;;30.08;;
16543;SDS011;8384;47.996;7.786;2022-12-18T05:19:31;43.43;;;28.87;;
16543;SDS011;8384;47.996;7.786;2022-12-18T05:21:56;38.43;;;27.77;;
16543;SDS011;8384;47.996;7.786;2022-12-18T05:24:22;30.67;;;23.42;;
16543;SDS011;8384;47.996;7.786;2022-12-18T05:26:47;29.07;;;22.87;;
16543;SDS011;8384;47.996;7.786;2022-12-18T05:29:12;25.27;;;21.00;;
16543;SDS011;8384;47.996;7.786;2022-12-18T05:31:38;24.70;;;21.00;;
16543;SDS011;8384;47.996;7.786;2022-12-18T05:34:04;24.48;;;20.45;;
16543;SDS011;8384;47.996;7.786;2022-12-18T05:36:30;24.90;;;20.50;;
16543;SDS011;8384;47.996;7.786;2022-12-18T05:38:55;26.63;;;21.07;;
16543;SDS011;8384;47.996;7.786;2022-12-18T05:41:20;24.73;;;21.03;;
16543;SDS011;8384;47.996;7.786;2022-12-18T05:43:46;25.77;;;20.93;;
16543;SDS011;8384;47.996;7.786;2022-12-18T05:46:12;24.37;;;20.83;;
16543;SDS011;8384;47.996;7.786;2022-12-18T05:48:40;26.63;;;22.05;;
16543;SDS011;8384;47.996;7.786;2022-12-18T05:51:08;26.15;;;21.25;;
16543;SDS011;8384;47.996;7.786;2022-12-18T05:53:36;26.77;;;21.92;;
16543;SDS011;8384;47.996;7.786;2022-12-18T05:56:02;38.03;;;26.55;;
16543;SDS011;8384;47.996;7.786;2022-12-18T05:58:32;40.90;;;27.58;;
16543;SDS011;8384;47.996;7.786;2022-12-18T06:00:58;41.42;;;28.23;;
16543;SDS011;8384;47.996;7.786;2022-12-18T06:03:30;41.83;;;28.70;;
16543;SDS011;8384;47.996;7.786;2022-12-18T06:05:55;39.17;;;27.13;;
16543;SDS011;8384;47.996;7.786;2022-12-18T06:08:21;37.13;;;26.87;;
16543;SDS011;8384;47.996;7.786;2022-12-18T06:10:49;36.75;;;26.98;;
16543;SDS011;8384;47.996;7.786;2022-12-18T06:13:16;39.10;;;27.05;;
16543;SDS011;8384;47.996;7.786;2022-12-18T06:15:42;39.50;;;26.80;;
16543;SDS011;8384;47.996;7.786;2022-12-18T06:18:07;38.63;;;26.60;;
16543;SDS011;8384;47.996;7.786;2022-12-18T06:20:32;36.05;;;26.42;;
16543;SDS011;8384;47.996;7.786;2022-12-18T06:22:58;38.73;;;27.07;;
16543;SDS011;8384;47.996;7.786;2022-12-18T06:25:23;40.53;;;27.27;;
16543;SDS011;8384;47.996;7.786;2022-12-18T06:27:48;41.40;;;28.88;;
16543;SDS011;8384;47.996;7.786;2022-12-18T06:30:14;40.67;;;27.63;;
16543;SDS011;8384;47.996;7.786;2022-12-18T06:32:39;41.63;;;28.00;;
16543;SDS011;8384;47.996;7.786;2022-12-18T06:35:05;42.03;;;28.77;;
16543;SDS011;8384;47.996;7.786;2022-12-18T06:37:31;42.60;;;28.30;;
16543;SDS011;8384;47.996;7.786;2022-12-18T06:39:56;42.13;;;29.17;;
16543;SDS011;8384;47.996;7.786;2022-12-18T06:42:22;41.03;;;27.83;;
16543;SDS011;8384;47.996;7.786;2022-12-18T06:44:47;43.83;;;29.67;;
16543;SDS011;8384;47.996;7.786;2022-12-18T06:47:13;39.87;;;27.30;;
16543;SDS011;8384;47.996;7.786;2022-12-18T06:49:38;37.93;;;26.80;;
16543;SDS011;8384;47.996;7.786;2022-12-18T06:52:03;39.10;;;27.27;;
16543;SDS011;8384;47.996;7.786;2022-12-18T06:54:28;36.67;;;26.20;;
16543;SDS011;8384;47.996;7.786;2022-12-18T06:56:54;38.40;;;26.97;;
16543;SDS011;8384;47.996;7.786;2022-12-18T06:59:19;38.97;;;27.57;;
16543;SDS011;8384;47.996;7.786;2022-12-18T07:01:44;39.33;;;27.27;;
16543;SDS011;8384;47.996;7.786;2022-12-18T07:04:10;41.40;;;27.33;;
16543;SDS011;8384;47.996;7.786;2022-12-18T07:06:35;38.22;;;27.00;;
16543;SDS011;8384;47.996;7.786;2022-12-18T07:09:00;38.27;;;26.70;;
16543;SDS011;8384;47.996;7.786;2022-12-18T07:11:25;37.70;;;26.40;;
16543;SDS011;8384;47.996;7.786;2022-12-18T07:13:51;35.90;;;24.80;;
16543;SDS011;8384;47.996;7.786;2022-12-18T07:16:18;38.38;;;26.63;;
16543;SDS011;8384;47.996;7.786;2022-12-18T07:18:44;38.15;;;26.52;;
16543;SDS011;8384;47.996;7.786;2022-12-18T07:21:11;36.30;;;25.30;;
16543;SDS011;8384;47.996;7.786;2022-12-18T07:23:39;37.20;;;26.48;;
16543;SDS011;8384;47.996;7.786;2022-12-18T07:26:05;37.90;;;26.47;;
16543;SDS011;8384;47.996;7.786;2022-12-18T07:28:32;36.33;;;25.35;;
16543;SDS011;8384;47.996;7.786;2022-12-18T07:31:02;32.37;;;23.53;;
16543;SDS011;8384;47.996;7.786;2022-12-18T07:33:28;46.03;;;34.78;;
16543;SDS011;8384;47.996;7.786;2022-12-18T07:35:53;75.77;;;51.43;;
16543;SDS011;8384;47.996;7.786;2022-12-18T07:38:18;117.60;;;70.70;;
16543;SDS011;8384;47.996;7.786;2022-12-18T07:40:43;49.00;;;33.87;;
16543;SDS011;8384;47.996;7.786;2022-12-18T07:43:09;35.07;;;25.30;;
16543;SDS011;8384;47.996;7.786;2022-12-18T07:45:34;35.37;;;26.10;;
16543;SDS011;8384;47.996;7.786;2022-12-18T07:47:59;34.30;;;24.67;;
16543;SDS011;8384;47.996;7.786;2022-12-18T07:50:25;36.40;;;26.00;;
16543;SDS011;8384;47.996;7.786;2022-12-18T07:52:50;33.37;;;24.73;;
16543;SDS011;8384;47.996;7.786;2022-12-18T07:55:15;33.50;;;24.63;;
16543;SDS011;8384;47.996;7.786;2022-12-18T07:57:41;33.07;;;23.60;;
16543;SDS011;8384;47.996;7.786;2022-12-18T08:00:06;32.38;;;23.20;;
16543;SDS011;8384;47.996;7.786;2022-12-18T08:02:32;30.75;;;23.13;;
16543;SDS011;8384;47.996;7.786;2022-12-18T08:04:58;29.93;;;22.50;;
16543;SDS011;8384;47.996;7.786;2022-12-18T08:07:23;30.55;;;22.90;;
16543;SDS011;8384;47.996;7.786;2022-12-18T08:09:48;29.80;;;22.93;;
16543;SDS011;8384;47.996;7.786;2022-12-18T08:12:14;31.70;;;23.83;;
16543;SDS011;8384;47.996;7.786;2022-12-18T08:14:39;30.90;;;23.13;;
16543;SDS011;8384;47.996;7.786;2022-12-18T08:17:04;31.87;;;23.67;;
16543;SDS011;8384;47.996;7.786;2022-12-18T08:19:29;30.48;;;22.95;;
16543;SDS011;8384;47.996;7.786;2022-12-18T08:21:55;30.50;;;22.83;;
16543;SDS011;8384;47.996;7.786;2022-12-18T08:24:20;29.67;;;22.97;;
16543;SDS011;8384;47.996;7.786;2022-12-18T08:26:45;30.87;;;23.70;;
16543;SDS011;8384;47.996;7.786;2022-12-18T08:29:11;29.17;;;22.85;;
16543;SDS011;8384;47.996;7.786;2022-12-18T08:31:36;31.00;;;23.00;;
16543;SDS011;8384;47.996;7.786;2022-12-18T08:34:02;32.28;;;23.92;;
16543;SDS011;8384;47.996;7.786;2022-12-18T08:36:27;32.97;;;25.47;;
16543;SDS011;8384;47.996;7.786;2022-12-18T08:38:52;32.10;;;24.67;;
16543;SDS011;8384;47.996;7.786;2022-12-18T08:41:18;33.17;;;25.55;;
16543;SDS011;8384;47.996;7.786;2022-12-18T08:43:44;31.73;;;24.93;;
16543;SDS011;8384;47.996;7.786;2022-12-18T08:46:31;31.27;;;24.30;;
16543;SDS011;8384;47.996;7.786;2022-12-18T08:48:59;31.50;;;24.10;;
16543;SDS011;8384;47.996;7.786;2022-12-18T08:51:24;30.63;;;23.40;;
16543;SDS011;8384;47.996;7.786;2022-12-18T08:53:50;29.87;;;23.40;;
16543;SDS011;8384;47.996;7.786;2022-12-18T08:56:15;30.35;;;23.42;;
16543;SDS011;8384;47.996;7.786;2022-12-18T08:58:41;31.10;;;24.17;;
16543;SDS011;8384;47.996;7.786;2022-12-18T09:01:08;34.58;;;25.33;;
16543;SDS011;8384;47.996;7.786;2022-12-18T09:03:35;34.40;;;25.50;;
16543;SDS011;8384;47.996;7.786;2022-12-18T09:06:00;32.97;;;24.90;;
16543;SDS011;8384;47.996;7.786;2022-12-18T09:08:26;31.30;;;24.67;;
16543;SDS011;8384;47.996;7.786;2022-12-18T09:10:51;32.75;;;24.42;;
16543;SDS011;8384;47.996;7.786;2022-12-18T09:13:17;31.30;;;24.37;;
16543;SDS011;8384;47.996;7.786;2022-12-18T09:15:48;33.03;;;24.98;;
16543;SDS011;8384;47.996;7.786;2022-12-18T09:18:18;30.17;;;23.83;;
16543;SDS011;8384;47.996;7.786;2022-12-18T09:20:45;29.65;;;23.48;;
16543;SDS011;8384;47.996;7.786;2022-12-18T09:23:10;30.37;;;23.93;;
16543;SDS011;8384;47.996;7.786;2022-12-18T09:25:36;28.50;;;23.17;;
16543;SDS011;8384;47.996;7.786;2022-12-18T09:28:03;27.60;;;22.88;;
16543;SDS011;8384;47.996;7.786;2022-12-18T09:30:37;29.08;;;23.23;;
16543;SDS011;8384;47.996;7.786;2022-12-18T09:33:03;27.75;;;22.77;;
16543;SDS011;8384;47.996;7.786;2022-12-18T09:35:28;27.03;;;22.33;;
16543;SDS011;8384;47.996;7.786;2022-12-18T09:37:54;27.45;;;22.20;;
16543;SDS011;8384;47.996;7.786;2022-12-18T09:40:20;26.77;;;22.07;;
16543;SDS011;8384;47.996;7.786;2022-12-18T09:42:51;28.00;;;22.58;;
16543;SDS011;8384;47.996;7.786;2022-12-18T09:45:20;25.92;;;20.98;;
16543;SDS011;8384;47.996;7.786;2022-12-18T09:47:46;27.70;;;22.58;;
16543;SDS011;8384;47.996;7.786;2022-12-18T09:50:35;27.13;;;22.02;;
16543;SDS011;8384;47.996;7.786;2022-12-18T09:53:03;28.88;;;23.85;;
16543;SDS011;8384;47.996;7.786;2022-12-18T09:55:40;30.13;;;24.13;;
16543;SDS011;8384;47.996;7.786;2022-12-18T09:58:18;26.93;;;22.53;;
16543;SDS011;8384;47.996;7.786;2022-12-18T10:00:44;25.88;;;22.17;;
16543;SDS011;8384;47.996;7.786;2022-12-18T10:03:10;26.50;;;22.58;;
16543;SDS011;8384;47.996;7.786;2022-12-18T10:08:25;42.47;;;38.15;;
16543;SDS011;8384;47.996;7.786;2022-12-18T10:11:21;27.30;;;24.35;;
16543;SDS011;8384;47.996;7.786;2022-12-18T10:13:57;25.65;;;22.45;;
16543;SDS011;8384;47.996;7.786;2022-12-18T10:19:20;25.55;;;22.00;;
16543;SDS011;8384;47.996;7.786;2022-12-18T10:21:56;24.10;;;21.05;;
16543;SDS011;8384;47.996;7.786;2022-12-18T10:24:39;25.48;;;21.88;;
16543;SDS011;8384;47.996;7.786;2022-12-18T10:27:22;24.98;;;21.92;;
16543;SDS011;8384;47.996;7.786;2022-12-18T10:29:49;26.00;;;23.20;;
16543;SDS011;8384;47.996;7.786;2022-12-18T10:32:16;28.23;;;23.33;;
16543;SDS011;8384;47.996;7.786;2022-12-18T10:34:47;25.60;;;22.58;;
16543;SDS011;8384;47.996;7.786;2022-12-18T10:37:17;26.10;;;23.25;;
16543;SDS011;8384;47.996;7.786;2022-12-18T10:39:45;25.15;;;21.88;;
16543;SDS011;8384;47.996;7.786;2022-12-18T10:42:20;26.27;;;23.02;;
16543;SDS011;8384;47.996;7.786;2022-12-18T10:44:45;26.65;;;23.13;;
16543;SDS011;8384;47.996;7.786;2022-12-18T10:47:12;28.13;;;23.70;;
16543;SDS011;8384;47.996;7.786;2022-12-18T10:49:50;27.55;;;23.10;;
16543;SDS011;8384;47.996;7.786;2022-12-18T10:52:23;27.17;;;23.85;;
16543;SDS011;8384;47.996;7.786;2022-12-18T10:54:51;28.48;;;22.65;;
16543;SDS011;8384;47.996;7.786;2022-12-18T10:59:52;26.08;;;22.77;;
16543;SDS011;8384;47.996;7.786;2022-12-18T11:02:33;27.75;;;23.83;;
16543;SDS011;8384;47.996;7.786;2022-12-18T11:05:01;27.77;;;24.02;;
16543;SDS011;8384;47.996;7.786;2022-12-18T11:07:40;28.17;;;23.60;;
16543;SDS011;8384;47.996;7.786;2022-12-18T11:10:17;28.08;;;23.95;;
16543;SDS011;8384;47.996;7.786;2022-12-18T11:12:43;26.40;;;23.10;;
16543;SDS011;8384;47.996;7.786;2022-12-18T11:15:42;29.38;;;23.25;;
16543;SDS011;8384;47.996;7.786;2022-12-18T11:18:00;25.85;;;21.83;;
16543;SDS011;8384;47.996;7.786;2022-12-18T11:20:32;27.13;;;22.97;;
16543;SDS011;8384;47.996;7.786;2022-12-18T11:23:03;26.33;;;22.33;;
16543;SDS011;8384;47.996;7.786;2022-12-18T11:25:35;25.02;;;21.55;;
16543;SDS011;8384;47.996;7.786;2022-12-18T11:33:41;24.50;;;21.90;;
16543;SDS011;8384;47.996;7.786;2022-12-18T11:36:11;28.17;;;24.23;;
16543;SDS011;8384;47.996;7.786;2022-12-18T11:38:38;26.47;;;23.63;;
16543;SDS011;8384;47.996;7.786;2022-12-18T11:44:27;26.83;;;23.07;;
16543;SDS011;8384;47.996;7.786;2022-12-18T11:47:00;25.53;;;22.63;;
16543;SDS011;8384;47.996;7.786;2022-12-18T11:49:33;26.77;;;23.25;;
16543;SDS011;8384;47.996;7.786;2022-12-18T11:52:09;27.75;;;23.80;;
16543;SDS011;8384;47.996;7.786;2022-12-18T11:54:38;27.88;;;23.60;;
16543;SDS011;8384;47.996;7.786;2022-12-18T11:59:41;24.63;;;22.02;;
16543;SDS011;8384;47.996;7.786;2022-12-18T12:02:33;24.08;;;21.48;;
16543;SDS011;8384;47.996;7.786;2022-12-18T12:10:42;25.60;;;22.63;;
16543;SDS011;8384;47.996;7.786;2022-12-18T12:13:48;26.45;;;23.15;;
16543;SDS011;8384;47.996;7.786;2022-12-18T12:16:32;26.70;;;23.08;;
16543;SDS011;8384;47.996;7.786;2022-12-18T12:19:32;27.10;;;23.23;;
16543;SDS011;8384;47.996;7.786;2022-12-18T12:22:31;26.30;;;22.77;;
16543;SDS011;8384;47.996;7.786;2022-12-18T12:25:14;26.13;;;22.48;;
16543;SDS011;8384;47.996;7.786;2022-12-18T12:38:44;26.08;;;23.27;;
16543;SDS011;8384;47.996;7.786;2022-12-18T12:41:16;27.20;;;23.90;;
16543;SDS011;8384;47.996;7.786;2022-12-18T12:44:05;26.40;;;23.25;;
16543;SDS011;8384;47.996;7.786;2022-12-18T12:46:34;28.25;;;24.27;;
16543;SDS011;8384;47.996;7.786;2022-12-18T12:49:04;29.27;;;24.30;;
16543;SDS011;8384;47.996;7.786;2022-12-18T12:51:58;27.85;;;23.63;;
16543;SDS011;8384;47.996;7.786;2022-12-18T12:54:29;27.10;;;23.45;;
16543;SDS011;8384;47.996;7.786;2022-12-18T12:57:18;27.92;;;24.13;;
16543;SDS011;8384;47.996;7.786;2022-12-18T13:05:34;29.52;;;24.60;;
16543;SDS011;8384;47.996;7.786;2022-12-18T13:10:50;29.98;;;24.92;;
16543;SDS011;8384;47.996;7.786;2022-12-18T13:16:17;32.38;;;25.77;;
16543;SDS011;8384;47.996;7.786;2022-12-18T13:18:48;31.27;;;25.83;;
16543;SDS011;8384;47.996;7.786;2022-12-18T13:21:29;31.50;;;26.75;;
16543;SDS011;8384;47.996;7.786;2022-12-18T13:23:57;31.27;;;25.88;;
16543;SDS011;8384;47.996;7.786;2022-12-18T13:26:45;30.83;;;24.42;;
16543;SDS011;8384;47.996;7.786;2022-12-18T13:29:10;29.93;;;24.57;;
16543;SDS011;8384;47.996;7.786;2022-12-18T13:34:20;29.98;;;24.65;;
16543;SDS011;8384;47.996;7.786;2022-12-18T13:36:46;29.90;;;24.85;;
16543;SDS011;8384;47.996;7.786;2022-12-18T13:41:44;31.13;;;24.65;;
16543;SDS011;8384;47.996;7.786;2022-12-18T13:46:54;26.75;;;23.85;;
16543;SDS011;8384;47.996;7.786;2022-12-18T13:51:53;31.30;;;25.30;;
16543;SDS011;8384;47.996;7.786;2022-12-18T13:54:23;29.10;;;24.65;;
16543;SDS011;8384;47.996;7.786;2022-12-18T13:56:51;27.80;;;24.13;;
16543;SDS011;8384;47.996;7.786;2022-12-18T13:59:21;29.13;;;24.73;;
16543;SDS011;8384;47.996;7.786;2022-12-18T14:01:52;30.65;;;25.33;;
16543;SDS011;8384;47.996;7.786;2022-12-18T14:04:19;30.75;;;25.90;;
16543;SDS011;8384;47.996;7.786;2022-12-18T14:06:49;27.83;;;24.85;;
16543;SDS011;8384;47.996;7.786;2022-12-18T14:09:24;28.23;;;25.23;;
16543;SDS011;8384;47.996;7.786;2022-12-18T14:11:51;28.52;;;24.70;;
16543;SDS011;8384;47.996;7.786;2022-12-18T14:14:17;27.67;;;24.00;;
16543;SDS011;8384;47.996;7.786;2022-12-18T14:16:44;27.52;;;24.05;;
16543;SDS011;8384;47.996;7.786;2022-12-18T14:19:15;27.70;;;24.70;;
16543;SDS011;8384;47.996;7.786;2022-12-18T14:21:49;28.98;;;25.55;;
16543;SDS011;8384;47.996;7.786;2022-12-18T14:24:16;27.20;;;24.30;;
16543;SDS011;8384;47.996;7.786;2022-12-18T14:26:44;30.42;;;25.85;;
16543;SDS011;8384;47.996;7.786;2022-12-18T14:29:26;28.15;;;24.73;;
16543;SDS011;8384;47.996;7.786;2022-12-18T14:34:34;26.08;;;23.33;;
16543;SDS011;8384;47.996;7.786;2022-12-18T14:36:59;26.07;;;23.40;;
16543;SDS011;8384;47.996;7.786;2022-12-18T14:39:24;26.20;;;23.40;;
16543;SDS011;8384;47.996;7.786;2022-12-18T14:41:50;28.27;;;24.63;;
16543;SDS011;8384;47.996;7.786;2022-12-18T14:44:16;28.65;;;25.05;;
16543;SDS011;8384;47.996;7.786;2022-12-18T14:46:45;28.80;;;25.73;;
16543;SDS011;8384;47.996;7.786;2022-12-18T14:51:57;27.45;;;24.50;;
16543;SDS011;8384;47.996;7.786;2022-12-18T14:54:25;27.90;;;24.83;;
16543;SDS011;8384;47.996;7.786;2022-12-18T14:56:56;28.90;;;25.38;;
16543;SDS011;8384;47.996;7.786;2022-12-18T14:59:26;29.27;;;25.67;;
16543;SDS011;8384;47.996;7.786;2022-12-18T15:01:57;29.55;;;26.42;;
16543;SDS011;8384;47.996;7.786;2022-12-18T15:04:30;30.25;;;26.95;;
16543;SDS011;8384;47.996;7.786;2022-12-18T15:09:38;29.40;;;26.25;;
16543;SDS011;8384;47.996;7.786;2022-12-18T15:12:04;30.60;;;26.40;;
16543;SDS011;8384;47.996;7.786;2022-12-18T15:14:40;31.30;;;27.23;;
16543;SDS011;8384;47.996;7.786;2022-12-18T15:17:14;31.67;;;27.23;;
16543;SDS011;8384;47.996;7.786;2022-12-18T15:19:43;30.42;;;27.13;;
16543;SDS011;8384;47.996;7.786;2022-12-18T15:22:24;31.03;;;27.63;;
16543;SDS011;8384;47.996;7.786;2022-12-18T15:24:53;33.25;;;28.75;;
16543;SDS011;8384;47.996;7.786;2022-12-18T15:32:34;32.90;;;29.30;;
16543;SDS011;8384;47.996;7.786;2022-12-18T15:35:03;35.35;;;31.48;;
16543;SDS011;8384;47.996;7.786;2022-12-18T15:37:34;34.22;;;30.48;;
16543;SDS011;8384;47.996;7.786;2022-12-18T15:40:00;34.00;;;30.27;;
16543;SDS011;8384;47.996;7.786;2022-12-18T15:42:27;32.92;;;29.42;;
16543;SDS011;8384;47.996;7.786;2022-12-18T15:45:11;37.92;;;33.70;;
16543;SDS011;8384;47.996;7.786;2022-12-18T15:47:38;31.95;;;28.65;;
16543;SDS011;8384;47.996;7.786;2022-12-18T15:50:03;33.40;;;29.85;;
16543;SDS011;8384;47.996;7.786;2022-12-18T15:52:29;35.00;;;31.38;;
16543;SDS011;8384;47.996;7.786;2022-12-18T15:54:57;31.63;;;28.30;;
16543;SDS011;8384;47.996;7.786;2022-12-18T15:57:41;33.22;;;29.65;;
16543;SDS011;8384;47.996;7.786;2022-12-18T16:00:11;32.60;;;29.17;;
16543;SDS011;8384;47.996;7.786;2022-12-18T16:02:37;33.23;;;29.73;;
16543;SDS011;8384;47.996;7.786;2022-12-18T16:05:02;36.05;;;32.20;;
16543;SDS011;8384;47.996;7.786;2022-12-18T16:07:28;33.53;;;30.00;;
16543;SDS011;8384;47.996;7.786;2022-12-18T16:09:53;33.10;;;29.60;;
16543;SDS011;8384;47.996;7.786;2022-12-18T16:12:20;31.15;;;27.92;;
16543;SDS011;8384;47.996;7.786;2022-12-18T16:14:47;31.45;;;28.02;;
16543;SDS011;8384;47.996;7.786;2022-12-18T16:17:13;33.97;;;29.47;;